Lincoln, Rhode Island
Current Conditions -  °F | °C
As of 8:53 PM on Friday 24 Oct 2014 (Local Time) from KUUU Reporting Station
Overcast Overcast  
Wind Chill: 52°   Ceiling: 2800
Heat Index: 52°   Visibility: 10mi
Dew Point: 41°   Wind: 13mph
Humidity: 66%   Direction: 320°NW
Pressure: 29.74"   Gusts: 21mph
Location:  41.54°N, 71.25°W
Report Text: KUUU 250053Z AUTO 32011G18KT 10SM OVC028 11/05 A2974 RMK AO2 SLP071 T01110050
Loading
Personal Weather Stations






























Interactive Weather Map
Tropical Storm Tracking
New forecast layout! Learn more

10-Day Weather Forecast

Advertisements
Track Severe Weather on mobile